sensor_id;sensor_type;location;lat;lon;timestamp;pressure;altitude;pressure_sealevel;temperature
13304;BMP280;6720;51.958;4.540;2022-09-01T00:02:19;102047.03;;;17.31
13304;BMP280;6720;51.958;4.540;2022-09-01T00:04:44;102038.03;;;17.38
13304;BMP280;6720;51.958;4.540;2022-09-01T00:07:12;102042.00;;;17.22
13304;BMP280;6720;51.958;4.540;2022-09-01T00:09:38;102041.06;;;17.23
13304;BMP280;6720;51.958;4.540;2022-09-01T00:12:06;102036.91;;;17.13
13304;BMP280;6720;51.958;4.540;2022-09-01T00:14:34;102029.75;;;17.18
13304;BMP280;6720;51.958;4.540;2022-09-01T00:17:03;102028.16;;;17.11
13304;BMP280;6720;51.958;4.540;2022-09-01T00:19:29;102028.13;;;17.12
13304;BMP280;6720;51.958;4.540;2022-09-01T00:21:55;102029.16;;;17.07
13304;BMP280;6720;51.958;4.540;2022-09-01T00:24:21;102022.22;;;17.01
13304;BMP280;6720;51.958;4.540;2022-09-01T00:26:47;102033.81;;;16.96
13304;BMP280;6720;51.958;4.540;2022-09-01T00:29:14;102023.31;;;16.93
13304;BMP280;6720;51.958;4.540;2022-09-01T00:31:40;102010.66;;;16.70
13304;BMP280;6720;51.958;4.540;2022-09-01T00:34:06;102023.28;;;16.94
13304;BMP280;6720;51.958;4.540;2022-09-01T00:36:32;102020.09;;;16.80
13304;BMP280;6720;51.958;4.540;2022-09-01T00:38:57;102027.00;;;16.86
13304;BMP280;6720;51.958;4.540;2022-09-01T00:41:26;102022.84;;;16.76
13304;BMP280;6720;51.958;4.540;2022-09-01T00:44:05;102018.50;;;16.72
13304;BMP280;6720;51.958;4.540;2022-09-01T00:46:34;102012.16;;;16.80
13304;BMP280;6720;51.958;4.540;2022-09-01T00:49:07;102006.44;;;16.62
13304;BMP280;6720;51.958;4.540;2022-09-01T00:51:34;101995.63;;;16.71
13304;BMP280;6720;51.958;4.540;2022-09-01T00:54:03;102000.16;;;16.66
13304;BMP280;6720;51.958;4.540;2022-09-01T00:56:31;102009.00;;;16.65
13304;BMP280;6720;51.958;4.540;2022-09-01T00:58:59;102008.38;;;16.54
13304;BMP280;6720;51.958;4.540;2022-09-01T01:01:25;102004.22;;;16.41
13304;BMP280;6720;51.958;4.540;2022-09-01T01:03:50;102009.34;;;16.50
13304;BMP280;6720;51.958;4.540;2022-09-01T01:06:17;102004.75;;;16.58
13304;BMP280;6720;51.958;4.540;2022-09-01T01:08:46;102006.03;;;16.40
13304;BMP280;6720;51.958;4.540;2022-09-01T01:11:22;102005.13;;;16.40
13304;BMP280;6720;51.958;4.540;2022-09-01T01:13:52;102006.94;;;16.38
13304;BMP280;6720;51.958;4.540;2022-09-01T01:16:20;102006.88;;;16.41
13304;BMP280;6720;51.958;4.540;2022-09-01T01:18:45;102006.84;;;16.44
13304;BMP280;6720;51.958;4.540;2022-09-01T01:21:17;102000.09;;;16.29
13304;BMP280;6720;51.958;4.540;2022-09-01T01:26:47;101996.59;;;16.27
13304;BMP280;6720;51.958;4.540;2022-09-01T01:29:12;102012.31;;;16.35
13304;BMP280;6720;51.958;4.540;2022-09-01T01:31:39;102008.16;;;16.23
13304;BMP280;6720;51.958;4.540;2022-09-01T01:34:04;102004.75;;;16.18
13304;BMP280;6720;51.958;4.540;2022-09-01T01:36:36;101997.69;;;16.17
13304;BMP280;6720;51.958;4.540;2022-09-01T01:39:09;102005.59;;;16.19
13304;BMP280;6720;51.958;4.540;2022-09-01T01:41:37;102005.03;;;16.05
13304;BMP280;6720;51.958;4.540;2022-09-01T01:44:05;102000.41;;;16.16
13304;BMP280;6720;51.958;4.540;2022-09-01T01:46:33;102005.59;;;16.19
13304;BMP280;6720;51.958;4.540;2022-09-01T01:48:59;102007.41;;;16.17
13304;BMP280;6720;51.958;4.540;2022-09-01T01:51:27;101987.63;;;15.95
13304;BMP280;6720;51.958;4.540;2022-09-01T01:53:56;101995.50;;;15.98
13304;BMP280;6720;51.958;4.540;2022-09-01T01:56:26;102005.13;;;16.00
13304;BMP280;6720;51.958;4.540;2022-09-01T01:58:53;102006.00;;;16.01
13304;BMP280;6720;51.958;4.540;2022-09-01T02:01:20;102005.97;;;16.02
13304;BMP280;6720;51.958;4.540;2022-09-01T02:03:48;102002.56;;;15.96
13304;BMP280;6720;51.958;4.540;2022-09-01T02:06:17;102005.13;;;16.00
13304;BMP280;6720;51.958;4.540;2022-09-01T02:08:49;101999.09;;;15.94
13304;BMP280;6720;51.958;4.540;2022-09-01T02:11:17;102007.69;;;16.05
13304;BMP280;6720;51.958;4.540;2022-09-01T02:13:42;101998.13;;;15.98
13304;BMP280;6720;51.958;4.540;2022-09-01T02:16:11;102001.75;;;15.94
13304;BMP280;6720;51.958;4.540;2022-09-01T02:18:40;101992.25;;;15.84
13304;BMP280;6720;51.958;4.540;2022-09-01T02:21:08;101997.53;;;15.84
13304;BMP280;6720;51.958;4.540;2022-09-01T02:23:36;101995.97;;;15.74
13304;BMP280;6720;51.958;4.540;2022-09-01T02:26:03;101999.34;;;15.82
13304;BMP280;6720;51.958;4.540;2022-09-01T02:28:32;101999.50;;;15.73
13304;BMP280;6720;51.958;4.540;2022-09-01T02:31:01;101986.34;;;15.71
13304;BMP280;6720;51.958;4.540;2022-09-01T02:33:28;101992.31;;;15.81
13304;BMP280;6720;51.958;4.540;2022-09-01T02:35:58;101986.44;;;15.67
13304;BMP280;6720;51.958;4.540;2022-09-01T02:38:24;101985.56;;;15.66
13304;BMP280;6720;51.958;4.540;2022-09-01T02:40:55;101978.69;;;15.58
13304;BMP280;6720;51.958;4.540;2022-09-01T02:43:21;101982.47;;;15.45
13304;BMP280;6720;51.958;4.540;2022-09-01T02:45:48;101974.66;;;15.39
13304;BMP280;6720;51.958;4.540;2022-09-01T02:48:40;101983.47;;;15.38
13304;BMP280;6720;51.958;4.540;2022-09-01T02:51:22;101982.72;;;15.30
13304;BMP280;6720;51.958;4.540;2022-09-01T02:53:50;101984.31;;;15.40
13304;BMP280;6720;51.958;4.540;2022-09-01T02:56:20;101979.91;;;15.40
13304;BMP280;6720;51.958;4.540;2022-09-01T02:58:47;101977.34;;;15.34
13304;BMP280;6720;51.958;4.540;2022-09-01T03:01:16;101977.50;;;15.27
13304;BMP280;6720;51.958;4.540;2022-09-01T03:03:44;101979.16;;;15.31
13304;BMP280;6720;51.958;4.540;2022-09-01T03:06:10;101970.31;;;15.35
13304;BMP280;6720;51.958;4.540;2022-09-01T03:08:37;101971.97;;;15.42
13304;BMP280;6720;51.958;4.540;2022-09-01T03:11:04;101966.63;;;15.45
13304;BMP280;6720;51.958;4.540;2022-09-01T03:13:32;101975.50;;;15.41
13304;BMP280;6720;51.958;4.540;2022-09-01T03:15:57;101977.97;;;15.50
13304;BMP280;6720;51.958;4.540;2022-09-01T03:18:41;101972.63;;;15.53
13304;BMP280;6720;51.958;4.540;2022-09-01T03:21:15;101968.31;;;15.49
13304;BMP280;6720;51.958;4.540;2022-09-01T03:23:42;101971.09;;;15.41
13304;BMP280;6720;51.958;4.540;2022-09-01T03:26:08;101962.13;;;15.50
13304;BMP280;6720;51.958;4.540;2022-09-01T03:28:33;101960.34;;;15.52
13304;BMP280;6720;51.958;4.540;2022-09-01T03:30:59;101960.25;;;15.55
13304;BMP280;6720;51.958;4.540;2022-09-01T03:33:26;101961.06;;;15.60
13304;BMP280;6720;51.958;4.540;2022-09-01T03:35:52;101953.97;;;15.62
13304;BMP280;6720;51.958;4.540;2022-09-01T03:38:18;101958.38;;;15.63
13304;BMP280;6720;51.958;4.540;2022-09-01T03:40:58;101947.00;;;15.58
13304;BMP280;6720;51.958;4.540;2022-09-01T03:43:27;101957.50;;;15.61
13304;BMP280;6720;51.958;4.540;2022-09-01T03:45:57;101941.09;;;15.45
13304;BMP280;6720;51.958;4.540;2022-09-01T03:48:29;101947.25;;;15.46
13304;BMP280;6720;51.958;4.540;2022-09-01T03:50:57;101956.22;;;15.36
13304;BMP280;6720;51.958;4.540;2022-09-01T03:53:27;101959.69;;;15.41
13304;BMP280;6720;51.958;4.540;2022-09-01T03:55:53;101954.31;;;15.44
13304;BMP280;6720;51.958;4.540;2022-09-01T03:58:22;101958.88;;;15.34
13304;BMP280;6720;51.958;4.540;2022-09-01T04:00:54;101954.44;;;15.38
13304;BMP280;6720;51.958;4.540;2022-09-01T04:03:21;101950.19;;;15.28
13304;BMP280;6720;51.958;4.540;2022-09-01T04:05:48;101954.91;;;15.12
13304;BMP280;6720;51.958;4.540;2022-09-01T04:08:16;101951.28;;;15.18
13304;BMP280;6720;51.958;4.540;2022-09-01T04:10:46;101947.75;;;15.17
13304;BMP280;6720;51.958;4.540;2022-09-01T04:13:24;101951.22;;;15.19
13304;BMP280;6720;51.958;4.540;2022-09-01T04:15:55;101952.09;;;15.21
13304;BMP280;6720;51.958;4.540;2022-09-01T04:18:21;101945.19;;;15.13
13304;BMP280;6720;51.958;4.540;2022-09-01T04:20:57;101947.69;;;15.22
13304;BMP280;6720;51.958;4.540;2022-09-01T04:23:31;101952.41;;;15.03
13304;BMP280;6720;51.958;4.540;2022-09-01T04:26:08;101958.34;;;15.16
13304;BMP280;6720;51.958;4.540;2022-09-01T04:28:37;101957.41;;;15.18
13304;BMP280;6720;51.958;4.540;2022-09-01T04:31:05;101948.78;;;15.09
13304;BMP280;6720;51.958;4.540;2022-09-01T04:33:34;101955.84;;;15.08
13304;BMP280;6720;51.958;4.540;2022-09-01T04:36:15;101955.16;;;14.97
13304;BMP280;6720;51.958;4.540;2022-09-01T04:38:48;101958.56;;;15.04
13304;BMP280;6720;51.958;4.540;2022-09-01T04:41:14;101959.50;;;15.01
13304;BMP280;6720;51.958;4.540;2022-09-01T04:43:46;101954.03;;;15.12
13304;BMP280;6720;51.958;4.540;2022-09-01T04:46:14;101954.03;;;15.12
13304;BMP280;6720;51.958;4.540;2022-09-01T04:48:40;101955.88;;;15.07
13304;BMP280;6720;51.958;4.540;2022-09-01T04:51:08;101952.50;;;14.99
13304;BMP280;6720;51.958;4.540;2022-09-01T04:53:35;101956.84;;;15.03
13304;BMP280;6720;51.958;4.540;2022-09-01T04:56:05;101955.06;;;15.02
13304;BMP280;6720;51.958;4.540;2022-09-01T04:58:30;101947.84;;;15.13
13304;BMP280;6720;51.958;4.540;2022-09-01T05:00:56;101953.38;;;14.98
13304;BMP280;6720;51.958;4.540;2022-09-01T05:03:25;101953.38;;;14.98
13304;BMP280;6720;51.958;4.540;2022-09-01T05:05:51;101954.84;;;15.14
13304;BMP280;6720;51.958;4.540;2022-09-01T05:08:20;101955.72;;;15.14
13304;BMP280;6720;51.958;4.540;2022-09-01T05:10:48;101953.97;;;15.15
13304;BMP280;6720;51.958;4.540;2022-09-01T05:13:18;101947.84;;;15.13
13304;BMP280;6720;51.958;4.540;2022-09-01T05:15:45;101947.59;;;15.25
13304;BMP280;6720;51.958;4.540;2022-09-01T05:18:20;101953.81;;;15.22
13304;BMP280;6720;51.958;4.540;2022-09-01T05:20:50;101955.34;;;15.37
13304;BMP280;6720;51.958;4.540;2022-09-01T05:23:17;101949.13;;;15.41
13304;BMP280;6720;51.958;4.540;2022-09-01T05:25:45;101949.16;;;15.38
13304;BMP280;6720;51.958;4.540;2022-09-01T05:28:17;101952.72;;;15.37
13304;BMP280;6720;51.958;4.540;2022-09-01T05:30:45;101947.31;;;15.43
13304;BMP280;6720;51.958;4.540;2022-09-01T05:33:11;101950.75;;;15.48
13304;BMP280;6720;51.958;4.540;2022-09-01T05:35:42;101949.81;;;15.50
13304;BMP280;6720;51.958;4.540;2022-09-01T05:38:16;101956.84;;;15.50
13304;BMP280;6720;51.958;4.540;2022-09-01T05:40:42;101956.53;;;15.66
13304;BMP280;6720;51.958;4.540;2022-09-01T05:43:10;101957.50;;;15.61
13304;BMP280;6720;51.958;4.540;2022-09-01T05:45:41;101957.25;;;15.74
13304;BMP280;6720;51.958;4.540;2022-09-01T05:48:09;101957.31;;;15.70
13304;BMP280;6720;51.958;4.540;2022-09-01T05:50:38;101953.50;;;15.86
13304;BMP280;6720;51.958;4.540;2022-09-01T05:53:05;101938.28;;;15.97
13304;BMP280;6720;51.958;4.540;2022-09-01T05:55:36;101958.50;;;15.98
13304;BMP280;6720;51.958;4.540;2022-09-01T05:58:01;101949.41;;;16.11
13304;BMP280;6720;51.958;4.540;2022-09-01T06:00:27;101961.63;;;16.15
13304;BMP280;6720;51.958;4.540;2022-09-01T06:02:59;101954.84;;;16.05
13304;BMP280;6720;51.958;4.540;2022-09-01T06:05:26;101954.75;;;16.08
13304;BMP280;6720;51.958;4.540;2022-09-01T06:07:51;101943.56;;;15.97
13304;BMP280;6720;51.958;4.540;2022-09-01T06:10:19;101957.38;;;16.08
13304;BMP280;6720;51.958;4.540;2022-09-01T06:12:44;101961.56;;;16.18
13304;BMP280;6720;51.958;4.540;2022-09-01T06:15:11;101951.34;;;16.03
13304;BMP280;6720;51.958;4.540;2022-09-01T06:17:40;101955.53;;;16.13
13304;BMP280;6720;51.958;4.540;2022-09-01T06:20:06;101958.91;;;16.19
13304;BMP280;6720;51.958;4.540;2022-09-01T06:22:34;101958.91;;;16.19
13304;BMP280;6720;51.958;4.540;2022-09-01T06:25:00;101963.31;;;16.19
13304;BMP280;6720;51.958;4.540;2022-09-01T06:27:26;101960.47;;;16.28
13304;BMP280;6720;51.958;4.540;2022-09-01T06:29:51;101962.97;;;16.34
13304;BMP280;6720;51.958;4.540;2022-09-01T06:32:18;101961.19;;;16.34
13304;BMP280;6720;51.958;4.540;2022-09-01T06:34:44;101959.34;;;16.38
13304;BMP280;6720;51.958;4.540;2022-09-01T06:37:15;101952.41;;;16.34
13304;BMP280;6720;51.958;4.540;2022-09-01T06:39:42;101963.72;;;16.40
13304;BMP280;6720;51.958;4.540;2022-09-01T06:42:08;101960.03;;;16.47
13304;BMP280;6720;51.958;4.540;2022-09-01T06:44:35;101964.19;;;16.59
13304;BMP280;6720;51.958;4.540;2022-09-01T06:47:01;101956.38;;;16.53
13304;BMP280;6720;51.958;4.540;2022-09-01T06:49:26;101966.75;;;16.62
13304;BMP280;6720;51.958;4.540;2022-09-01T06:52:02;101965.91;;;16.60
13304;BMP280;6720;51.958;4.540;2022-09-01T06:54:29;101968.69;;;16.55
13304;BMP280;6720;51.958;4.540;2022-09-01T06:57:00;101967.50;;;16.67
13304;BMP280;6720;51.958;4.540;2022-09-01T06:59:29;101972.00;;;16.65
13304;BMP280;6720;51.958;4.540;2022-09-01T07:01:56;101971.75;;;16.74
13304;BMP280;6720;51.958;4.540;2022-09-01T07:04:25;101975.28;;;16.74
13304;BMP280;6720;51.958;4.540;2022-09-01T07:06:53;101978.47;;;16.87
13304;BMP280;6720;51.958;4.540;2022-09-01T07:09:19;101960.97;;;16.81
13304;BMP280;6720;51.958;4.540;2022-09-01T07:11:44;101977.25;;;17.01
13304;BMP280;6720;51.958;4.540;2022-09-01T07:14:10;101979.06;;;16.98
13304;BMP280;6720;51.958;4.540;2022-09-01T07:16:36;101985.28;;;16.97
13304;BMP280;6720;51.958;4.540;2022-09-01T07:19:06;101978.22;;;16.97
13304;BMP280;6720;51.958;4.540;2022-09-01T07:21:38;101974.47;;;17.06
13304;BMP280;6720;51.958;4.540;2022-09-01T07:24:04;101978.69;;;17.13
13304;BMP280;6720;51.958;4.540;2022-09-01T07:26:31;101982.19;;;17.15
13304;BMP280;6720;51.958;4.540;2022-09-01T07:28:57;101983.84;;;17.19
13304;BMP280;6720;51.958;4.540;2022-09-01T07:31:26;101982.00;;;17.21
13304;BMP280;6720;51.958;4.540;2022-09-01T07:33:54;101977.63;;;17.20
13304;BMP280;6720;51.958;4.540;2022-09-01T07:36:23;101977.19;;;17.36
13304;BMP280;6720;51.958;4.540;2022-09-01T07:38:48;101978.22;;;17.31
13304;BMP280;6720;51.958;4.540;2022-09-01T07:41:20;101979.50;;;17.50
13304;BMP280;6720;51.958;4.540;2022-09-01T07:43:46;101975.03;;;17.52
13304;BMP280;6720;51.958;4.540;2022-09-01T07:46:13;101978.34;;;17.60
13304;BMP280;6720;51.958;4.540;2022-09-01T07:48:39;101986.41;;;17.55
13304;BMP280;6720;51.958;4.540;2022-09-01T07:51:04;101962.53;;;17.57
13304;BMP280;6720;51.958;4.540;2022-09-01T07:53:32;101981.00;;;17.60
13304;BMP280;6720;51.958;4.540;2022-09-01T07:56:09;101985.06;;;17.71
13304;BMP280;6720;51.958;4.540;2022-09-01T07:58:36;101979.69;;;17.74
13304;BMP280;6720;51.958;4.540;2022-09-01T08:01:11;101970.69;;;17.80
13304;BMP280;6720;51.958;4.540;2022-09-01T08:03:38;101986.28;;;17.90
13304;BMP280;6720;51.958;4.540;2022-09-01T08:06:07;101985.34;;;17.93
13304;BMP280;6720;51.958;4.540;2022-09-01T08:08:34;101976.09;;;18.06
13304;BMP280;6720;51.958;4.540;2022-09-01T08:11:00;101984.78;;;18.11
13304;BMP280;6720;51.958;4.540;2022-09-01T08:13:25;101977.59;;;18.16
13304;BMP280;6720;51.958;4.540;2022-09-01T08:15:51;101982.50;;;18.28
13304;BMP280;6720;51.958;4.540;2022-09-01T08:18:16;101988.34;;;18.41
13304;BMP280;6720;51.958;4.540;2022-09-01T08:20:43;101983.81;;;18.44
13304;BMP280;6720;51.958;4.540;2022-09-01T08:23:15;101984.44;;;18.52
13304;BMP280;6720;51.958;4.540;2022-09-01T08:25:43;101980.66;;;18.59
13304;BMP280;6720;51.958;4.540;2022-09-01T08:28:09;101986.50;;;18.70
13304;BMP280;6720;51.958;4.540;2022-09-01T08:30:38;101982.84;;;18.74
13304;BMP280;6720;51.958;4.540;2022-09-01T08:33:04;101987.38;;;18.71
13304;BMP280;6720;51.958;4.540;2022-09-01T08:35:29;101982.69;;;18.79
13304;BMP280;6720;51.958;4.540;2022-09-01T08:37:56;101986.19;;;18.79
13304;BMP280;6720;51.958;4.540;2022-09-01T08:40:21;101985.03;;;18.88
13304;BMP280;6720;51.958;4.540;2022-09-01T08:48:33;101975.13;;;19.19
13304;BMP280;6720;51.958;4.540;2022-09-01T08:51:12;101978.06;;;19.37
13304;BMP280;6720;51.958;4.540;2022-09-01T08:53:49;101977.78;;;19.45
13304;BMP280;6720;51.958;4.540;2022-09-01T08:56:17;101979.28;;;19.52
13304;BMP280;6720;51.958;4.540;2022-09-01T08:58:43;101974.41;;;19.64
13304;BMP280;6720;51.958;4.540;2022-09-01T09:01:17;101962.69;;;19.70
13304;BMP280;6720;51.958;4.540;2022-09-01T09:07:28;101965.38;;;19.93
13304;BMP280;6720;51.958;4.540;2022-09-01T09:09:56;101956.34;;;19.97
13304;BMP280;6720;51.958;4.540;2022-09-01T09:15:17;101962.94;;;20.11
13304;BMP280;6720;51.958;4.540;2022-09-01T09:18:15;101966.84;;;20.46
13304;BMP280;6720;51.958;4.540;2022-09-01T09:20:44;101964.94;;;20.49
13304;BMP280;6720;51.958;4.540;2022-09-01T09:23:20;101969.81;;;20.81
13304;BMP280;6720;51.958;4.540;2022-09-01T09:25:48;101960.03;;;21.03
13304;BMP280;6720;51.958;4.540;2022-09-01T09:28:15;101961.06;;;21.21
13304;BMP280;6720;51.958;4.540;2022-09-01T09:30:40;101955.94;;;21.57
13304;BMP280;6720;51.958;4.540;2022-09-01T09:33:06;101964.44;;;21.65
13304;BMP280;6720;51.958;4.540;2022-09-01T09:40:36;101949.75;;;21.95
13304;BMP280;6720;51.958;4.540;2022-09-01T09:43:04;101950.25;;;22.03
13304;BMP280;6720;51.958;4.540;2022-09-01T09:48:05;101953.72;;;23.30
13304;BMP280;6720;51.958;4.540;2022-09-01T09:50:39;101952.28;;;23.57
13304;BMP280;6720;51.958;4.540;2022-09-01T09:53:29;101950.78;;;24.01
13304;BMP280;6720;51.958;4.540;2022-09-01T09:58:54;101954.13;;;24.68
13304;BMP280;6720;51.958;4.540;2022-09-01T10:03:53;101954.53;;;25.06
13304;BMP280;6720;51.958;4.540;2022-09-01T10:09:33;101960.34;;;25.71
13304;BMP280;6720;51.958;4.540;2022-09-01T10:11:59;101950.41;;;26.15
13304;BMP280;6720;51.958;4.540;2022-09-01T10:14:37;101949.28;;;26.46
13304;BMP280;6720;51.958;4.540;2022-09-01T10:17:12;101955.44;;;26.74
13304;BMP280;6720;51.958;4.540;2022-09-01T10:22:23;101952.06;;;26.44
13304;BMP280;6720;51.958;4.540;2022-09-01T10:24:49;101948.88;;;26.66
13304;BMP280;6720;51.958;4.540;2022-09-01T10:27:23;101947.91;;;27.32
13304;BMP280;6720;51.958;4.540;2022-09-01T10:29:56;101956.66;;;27.09
13304;BMP280;6720;51.958;4.540;2022-09-01T10:32:32;101939.22;;;27.02
13304;BMP280;6720;51.958;4.540;2022-09-01T10:34:58;101936.38;;;27.30
13304;BMP280;6720;51.958;4.540;2022-09-01T10:37:24;101938.84;;;27.33
13304;BMP280;6720;51.958;4.540;2022-09-01T10:42:34;101936.38;;;28.54
13304;BMP280;6720;51.958;4.540;2022-09-01T10:45:00;101948.44;;;27.75
13304;BMP280;6720;51.958;4.540;2022-09-01T10:47:30;101942.13;;;29.08
13304;BMP280;6720;51.958;4.540;2022-09-01T10:50:00;101940.81;;;28.43
13304;BMP280;6720;51.958;4.540;2022-09-01T10:55:17;101933.94;;;28.26
13304;BMP280;6720;51.958;4.540;2022-09-01T10:58:23;101941.28;;;29.53
13304;BMP280;6720;51.958;4.540;2022-09-01T11:05:58;101939.28;;;27.52
13304;BMP280;6720;51.958;4.540;2022-09-01T11:11:01;101939.81;;;29.03
13304;BMP280;6720;51.958;4.540;2022-09-01T11:13:42;101931.41;;;29.86
13304;BMP280;6720;51.958;4.540;2022-09-01T11:16:32;101944.75;;;30.10
13304;BMP280;6720;51.958;4.540;2022-09-01T11:22:25;101936.06;;;29.95
13304;BMP280;6720;51.958;4.540;2022-09-01T11:35:57;101931.66;;;29.83
13304;BMP280;6720;51.958;4.540;2022-09-01T11:38:24;101929.28;;;31.08
13304;BMP280;6720;51.958;4.540;2022-09-01T11:40:55;101931.88;;;28.89
13304;BMP280;6720;51.958;4.540;2022-09-01T11:43:22;101921.84;;;29.26
13304;BMP280;6720;51.958;4.540;2022-09-01T11:46:00;101922.50;;;30.82
13304;BMP280;6720;51.958;4.540;2022-09-01T11:48:28;101926.25;;;31.22
13304;BMP280;6720;51.958;4.540;2022-09-01T11:51:00;101914.09;;;31.17
13304;BMP280;6720;51.958;4.540;2022-09-01T11:53:27;101918.16;;;31.93
13304;BMP280;6720;51.958;4.540;2022-09-01T11:55:54;101924.91;;;30.53
13304;BMP280;6720;51.958;4.540;2022-09-01T12:00:54;101915.47;;;31.73
13304;BMP280;6720;51.958;4.540;2022-09-01T12:05:51;101920.66;;;29.52
13304;BMP280;6720;51.958;4.540;2022-09-01T12:08:19;101913.59;;;31.43
13304;BMP280;6720;51.958;4.540;2022-09-01T12:10:45;101924.03;;;31.27
13304;BMP280;6720;51.958;4.540;2022-09-01T12:13:22;101923.03;;;31.99
13304;BMP280;6720;51.958;4.540;2022-09-01T12:15:59;101915.94;;;31.16
13304;BMP280;6720;51.958;4.540;2022-09-01T12:18:28;101911.78;;;30.60
13304;BMP280;6720;51.958;4.540;2022-09-01T12:20:57;101905.50;;;30.91
13304;BMP280;6720;51.958;4.540;2022-09-01T12:23:32;101905.28;;;31.35
13304;BMP280;6720;51.958;4.540;2022-09-01T12:26:01;101896.84;;;30.97
13304;BMP280;6720;51.958;4.540;2022-09-01T12:28:29;101903.47;;;32.54
13304;BMP280;6720;51.958;4.540;2022-09-01T12:31:04;101896.94;;;32.95
13304;BMP280;6720;51.958;4.540;2022-09-01T12:33:31;101911.25;;;32.87
13304;BMP280;6720;51.958;4.540;2022-09-01T12:36:29;101909.38;;;31.09
13304;BMP280;6720;51.958;4.540;2022-09-01T12:39:17;101905.50;;;31.73
13304;BMP280;6720;51.958;4.540;2022-09-01T12:41:44;101903.75;;;32.51
13304;BMP280;6720;51.958;4.540;2022-09-01T12:47:09;101900.34;;;33.06
13304;BMP280;6720;51.958;4.540;2022-09-01T12:54:37;101901.72;;;33.48
13304;BMP280;6720;51.958;4.540;2022-09-01T12:57:04;101891.50;;;33.04
13304;BMP280;6720;51.958;4.540;2022-09-01T12:59:30;101899.72;;;32.36
13304;BMP280;6720;51.958;4.540;2022-09-01T13:01:55;101881.63;;;32.65
13304;BMP280;6720;51.958;4.540;2022-09-01T13:06:47;101894.16;;;33.88
13304;BMP280;6720;51.958;4.540;2022-09-01T13:09:13;101891.41;;;33.61
13304;BMP280;6720;51.958;4.540;2022-09-01T13:11:38;101890.66;;;32.75
13304;BMP280;6720;51.958;4.540;2022-09-01T13:14:06;101891.75;;;33.39
13304;BMP280;6720;51.958;4.540;2022-09-01T13:16:32;101878.00;;;33.50
13304;BMP280;6720;51.958;4.540;2022-09-01T13:18:59;101879.81;;;32.94
13304;BMP280;6720;51.958;4.540;2022-09-01T13:21:24;101878.84;;;33.87
13304;BMP280;6720;51.958;4.540;2022-09-01T13:23:51;101875.91;;;34.26
13304;BMP280;6720;51.958;4.540;2022-09-01T13:26:17;101875.72;;;34.10
13304;BMP280;6720;51.958;4.540;2022-09-01T13:28:42;101873.22;;;32.68
13304;BMP280;6720;51.958;4.540;2022-09-01T13:31:09;101867.97;;;33.51
13304;BMP280;6720;51.958;4.540;2022-09-01T13:33:35;101862.81;;;32.92
13304;BMP280;6720;51.958;4.540;2022-09-01T13:36:01;101864.28;;;33.88
13304;BMP280;6720;51.958;4.540;2022-09-01T13:38:27;101866.94;;;33.98
13304;BMP280;6720;51.958;4.540;2022-09-01T13:40:53;101854.06;;;33.08
13304;BMP280;6720;51.958;4.540;2022-09-01T13:43:20;101850.00;;;33.40
13304;BMP280;6720;51.958;4.540;2022-09-01T13:45:46;101862.00;;;33.84
13304;BMP280;6720;51.958;4.540;2022-09-01T13:48:12;101863.13;;;33.54
13304;BMP280;6720;51.958;4.540;2022-09-01T13:50:38;101863.19;;;34.44
13304;BMP280;6720;51.958;4.540;2022-09-01T13:53:04;101859.97;;;33.49
13304;BMP280;6720;51.958;4.540;2022-09-01T13:55:33;101858.03;;;34.50
13304;BMP280;6720;51.958;4.540;2022-09-01T13:57:59;101852.91;;;33.10
13304;BMP280;6720;51.958;4.540;2022-09-01T14:00:27;101850.44;;;33.36
13304;BMP280;6720;51.958;4.540;2022-09-01T14:02:56;101847.66;;;31.84
13304;BMP280;6720;51.958;4.540;2022-09-01T14:05:25;101851.72;;;33.22
13304;BMP280;6720;51.958;4.540;2022-09-01T14:07:51;101849.34;;;33.65
13304;BMP280;6720;51.958;4.540;2022-09-01T14:10:18;101846.97;;;32.69
13304;BMP280;6720;51.958;4.540;2022-09-01T14:12:44;101848.66;;;32.79
13304;BMP280;6720;51.958;4.540;2022-09-01T14:15:11;101844.72;;;33.29
13304;BMP280;6720;51.958;4.540;2022-09-01T14:17:38;101840.19;;;33.66
13304;BMP280;6720;51.958;4.540;2022-09-01T14:20:06;101834.84;;;34.02
13304;BMP280;6720;51.958;4.540;2022-09-01T14:22:33;101824.53;;;32.76
13304;BMP280;6720;51.958;4.540;2022-09-01T14:24:59;101832.34;;;30.61
13304;BMP280;6720;51.958;4.540;2022-09-01T14:27:25;101830.66;;;32.40
13304;BMP280;6720;51.958;4.540;2022-09-01T14:29:51;101823.22;;;32.23
13304;BMP280;6720;51.958;4.540;2022-09-01T14:32:18;101833.66;;;32.94
13304;BMP280;6720;51.958;4.540;2022-09-01T14:34:45;101829.44;;;33.28
13304;BMP280;6720;51.958;4.540;2022-09-01T14:37:10;101826.34;;;33.04
13304;BMP280;6720;51.958;4.540;2022-09-01T14:39:36;101818.09;;;32.77
13304;BMP280;6720;51.958;4.540;2022-09-01T14:42:02;101821.63;;;33.06
13304;BMP280;6720;51.958;4.540;2022-09-01T14:44:30;101814.69;;;33.40
13304;BMP280;6720;51.958;4.540;2022-09-01T14:46:58;101818.13;;;33.23
13304;BMP280;6720;51.958;4.540;2022-09-01T14:49:23;101811.25;;;32.35
13304;BMP280;6720;51.958;4.540;2022-09-01T14:51:49;101812.59;;;30.49
13304;BMP280;6720;51.958;4.540;2022-09-01T14:54:15;101805.53;;;32.76
13304;BMP280;6720;51.958;4.540;2022-09-01T14:56:40;101805.97;;;32.62
13304;BMP280;6720;51.958;4.540;2022-09-01T14:59:06;101799.91;;;31.53
13304;BMP280;6720;51.958;4.540;2022-09-01T15:01:33;101782.69;;;32.60
13304;BMP280;6720;51.958;4.540;2022-09-01T15:03:58;101786.41;;;32.87
13304;BMP280;6720;51.958;4.540;2022-09-01T15:06:23;101791.31;;;33.20
13304;BMP280;6720;51.958;4.540;2022-09-01T15:08:49;101784.31;;;33.08
13304;BMP280;6720;51.958;4.540;2022-09-01T15:11:17;101791.13;;;33.41
13304;BMP280;6720;51.958;4.540;2022-09-01T15:13:44;101792.09;;;32.18
13304;BMP280;6720;51.958;4.540;2022-09-01T15:16:19;101781.41;;;32.54
13304;BMP280;6720;51.958;4.540;2022-09-01T15:18:45;101780.91;;;33.06
13304;BMP280;6720;51.958;4.540;2022-09-01T15:21:19;101782.00;;;33.23
13304;BMP280;6720;51.958;4.540;2022-09-01T15:23:45;101781.25;;;32.27
13304;BMP280;6720;51.958;4.540;2022-09-01T15:26:12;101778.53;;;32.84
13304;BMP280;6720;51.958;4.540;2022-09-01T15:28:38;101762.25;;;31.89
13304;BMP280;6720;51.958;4.540;2022-09-01T15:31:04;101768.84;;;32.25
13304;BMP280;6720;51.958;4.540;2022-09-01T15:33:29;101775.41;;;32.13
13304;BMP280;6720;51.958;4.540;2022-09-01T15:35:55;101768.13;;;32.13